Time;durP1;ratioP1;P1;durP2;ratioP2;P2;SDS_P1;SDS_P2;PMS_P1;PMS_P2;Temp;Humidity;BMP_temperature;BMP_pressure;BME280_temperature;BME280_humidity;BME280_pressure;Samples;Min_cycle;Max_cycle;Signal;HPM_P1;HPM_P2
2023/01/30 00:01:54;;;;;;;4.28;3.22;;;19.70;31.60;;;;;;5033046;28;20049;-64
2023/01/30 00:04:21;;;;;;;3.60;3.13;;;19.70;31.70;;;;;;5032965;28;20053;-64
2023/01/30 00:06:48;;;;;;;3.55;3.15;;;19.70;31.70;;;;;;5032975;28;20049;-64
2023/01/30 00:09:15;;;;;;;3.40;3.05;;;19.70;31.70;;;;;;5033059;28;20049;-64
2023/01/30 00:11:42;;;;;;;3.95;2.95;;;19.60;31.60;;;;;;5032950;28;20053;-64
2023/01/30 00:14:09;;;;;;;3.70;3.30;;;19.70;31.70;;;;;;5033222;28;20172;-64
2023/01/30 00:16:36;;;;;;;3.72;3.20;;;19.60;31.60;;;;;;5032778;28;20052;-64
2023/01/30 00:19:04;;;;;;;3.30;2.60;;;19.60;31.60;;;;;;5032608;28;20048;-64
2023/01/30 00:21:31;;;;;;;3.70;2.90;;;19.60;31.60;;;;;;5032533;28;20053;-64
2023/01/30 00:23:59;;;;;;;4.25;3.30;;;19.60;31.60;;;;;;5032051;28;20050;-65
2023/01/30 00:26:26;;;;;;;4.90;3.30;;;19.60;31.60;;;;;;5032545;28;20144;-64
2023/01/30 00:28:54;;;;;;;3.50;3.00;;;19.60;31.60;;;;;;5036311;28;20409;-64
2023/01/30 00:31:21;;;;;;;4.28;3.20;;;19.70;31.70;;;;;;5036720;28;20071;-64
2023/01/30 00:33:48;;;;;;;3.97;3.15;;;19.70;31.70;;;;;;5036578;28;20201;-64
2023/01/30 00:36:15;;;;;;;4.90;3.35;;;19.70;31.70;;;;;;5036869;28;20049;-64
2023/01/30 00:38:42;;;;;;;4.15;3.35;;;19.60;31.60;;;;;;5036650;28;20048;-64
2023/01/30 00:41:09;;;;;;;3.95;3.42;;;19.70;31.70;;;;;;5036396;28;20485;-64
2023/01/30 00:49:20;;;;;;;3.47;2.90;;;19.60;31.70;;;;;;5035540;28;20049;-64
2023/01/30 00:51:47;;;;;;;4.35;3.30;;;19.60;31.70;;;;;;5036191;28;20140;-64
2023/01/30 00:54:14;;;;;;;3.58;2.83;;;19.60;31.70;;;;;;5036544;28;20057;-64
2023/01/30 00:56:41;;;;;;;4.32;3.40;;;19.60;31.70;;;;;;5044249;28;20132;-65
2023/01/30 00:59:08;;;;;;;3.70;3.00;;;19.60;31.70;;;;;;5056108;28;20501;-64
2023/01/30 01:01:36;;;;;;;4.25;3.15;;;19.60;31.70;;;;;;5056020;28;20084;-64
2023/01/30 01:04:05;;;;;;;3.47;3.10;;;19.60;31.70;;;;;;5055959;28;20041;-64
2023/01/30 01:06:32;;;;;;;3.40;3.08;;;19.60;31.70;;;;;;5055860;28;20048;-64
2023/01/30 01:08:59;;;;;;;3.90;3.40;;;19.60;31.70;;;;;;5056098;28;20056;-64
2023/01/30 01:11:26;;;;;;;3.13;2.83;;;19.60;31.70;;;;;;5055840;28;20063;-64
2023/01/30 01:13:58;;;;;;;4.65;3.20;;;19.60;31.70;;;;;;5055742;28;20048;-65
2023/01/30 01:16:26;;;;;;;3.55;3.10;;;19.60;31.70;;;;;;5055843;28;20455;-65
2023/01/30 01:18:54;;;;;;;4.03;3.63;;;19.60;31.80;;;;;;5055949;28;20072;-65
2023/01/30 01:21:21;;;;;;;3.63;2.90;;;19.60;31.70;;;;;;5056051;28;20047;-65
2023/01/30 01:23:54;;;;;;;4.78;3.33;;;19.60;31.70;;;;;;5055792;28;20127;-65
2023/01/30 01:26:22;;;;;;;3.42;2.80;;;19.60;31.70;;;;;;5054310;28;20044;-64
2023/01/30 01:28:52;;;;;;;3.65;3.22;;;19.60;31.70;;;;;;5055499;28;20056;-65
2023/01/30 01:31:19;;;;;;;3.22;2.78;;;19.60;31.70;;;;;;5055489;28;20536;-64
2023/01/30 01:33:46;;;;;;;3.45;2.88;;;19.60;31.60;;;;;;5055266;28;20041;-64
2023/01/30 01:36:13;;;;;;;3.33;2.97;;;19.60;31.60;;;;;;5055365;28;20408;-64
2023/01/30 01:39:02;;;;;;;3.45;2.95;;;19.70;31.70;;;;;;5054074;28;20045;-64
2023/01/30 01:41:29;;;;;;;4.05;3.10;;;19.60;31.60;;;;;;5055586;28;20128;-64
2023/01/30 01:44:06;;;;;;;3.50;3.20;;;19.70;31.70;;;;;;5055336;28;20048;-64
2023/01/30 01:46:42;;;;;;;3.97;2.92;;;19.60;31.60;;;;;;5055130;28;20045;-64
2023/01/30 01:49:18;;;;;;;4.07;3.10;;;19.60;31.60;;;;;;5055552;28;20055;-64
2023/01/30 01:51:58;;;;;;;2.95;2.65;;;19.60;31.60;;;;;;5055163;28;20049;-64
2023/01/30 01:54:34;;;;;;;3.10;2.80;;;19.60;31.60;;;;;;5055394;28;20041;-64
2023/01/30 01:57:06;;;;;;;3.50;2.83;;;19.60;31.70;;;;;;5055387;28;20397;-65
2023/01/30 01:59:43;;;;;;;4.45;2.97;;;19.60;31.70;;;;;;5054783;28;20496;-64
2023/01/30 02:02:13;;;;;;;3.25;2.95;;;19.60;31.70;;;;;;5054890;28;20045;-64
2023/01/30 02:05:00;;;;;;;3.10;2.80;;;19.50;31.60;;;;;;5054889;28;20049;-64
2023/01/30 02:07:45;;;;;;;3.58;2.63;;;19.60;31.70;;;;;;5054770;28;20045;-64
2023/01/30 02:10:29;;;;;;;3.67;2.92;;;19.50;31.60;;;;;;5054857;28;20053;-64
2023/01/30 02:12:56;;;;;;;3.53;2.88;;;19.60;31.70;;;;;;5054900;28;20405;-64
2023/01/30 02:15:23;;;;;;;3.13;2.50;;;19.60;31.70;;;;;;5055018;28;20496;-64
2023/01/30 02:17:50;;;;;;;4.40;3.10;;;19.60;31.70;;;;;;5054879;28;20166;-66
2023/01/30 02:20:52;;;;;;;3.33;2.95;;;19.50;31.70;;;;;;5054416;28;20060;-64
2023/01/30 02:23:58;;;;;;;3.03;2.72;;;19.50;31.70;;;;;;5054850;28;20045;-64
2023/01/30 02:26:51;;;;;;;4.38;3.00;;;19.50;31.70;;;;;;5054899;28;20116;-64
2023/01/30 02:29:35;;;;;;;2.95;2.65;;;19.50;31.70;;;;;;5054737;28;20091;-64
2023/01/30 02:32:34;;;;;;;2.58;2.38;;;19.50;31.70;;;;;;5054197;28;20059;-64
2023/01/30 02:35:25;;;;;;;3.13;2.65;;;19.50;31.70;;;;;;5054828;28;20436;-64
2023/01/30 02:38:19;;;;;;;3.30;2.55;;;19.50;31.70;;;;;;5054201;28;20512;-64
2023/01/30 02:41:14;;;;;;;3.25;2.65;;;19.50;31.70;;;;;;5053253;28;20055;-64
2023/01/30 02:44:02;;;;;;;2.95;2.65;;;19.50;31.80;;;;;;5053563;28;20049;-64
2023/01/30 02:46:55;;;;;;;3.78;3.08;;;19.50;31.80;;;;;;5052986;28;20051;-64
2023/01/30 02:49:33;;;;;;;3.60;2.50;;;19.50;31.80;;;;;;5053976;28;20041;-64
2023/01/30 02:52:02;;;;;;;2.72;2.50;;;19.50;31.80;;;;;;5053602;28;20053;-64
2023/01/30 02:54:29;;;;;;;4.07;3.25;;;19.50;31.80;;;;;;5054111;28;20478;-64
2023/01/30 02:56:58;;;;;;;3.10;2.80;;;19.40;31.70;;;;;;5054370;28;20489;-66
2023/01/30 02:59:42;;;;;;;3.28;2.60;;;19.40;31.70;;;;;;5053813;28;20439;-64
2023/01/30 03:02:41;;;;;;;3.38;2.70;;;19.40;31.70;;;;;;5054153;28;20048;-64
2023/01/30 03:05:35;;;;;;;3.75;2.50;;;19.50;31.80;;;;;;5053785;28;20049;-65
2023/01/30 03:08:42;;;;;;;3.80;2.83;;;19.40;31.80;;;;;;5053903;28;20049;-65
2023/01/30 03:11:10;;;;;;;2.55;2.35;;;19.40;31.80;;;;;;5053452;28;20049;-65
2023/01/30 03:13:54;;;;;;;3.35;2.50;;;19.40;31.80;;;;;;5053819;28;20052;-64
2023/01/30 03:16:30;;;;;;;3.30;2.75;;;19.40;31.80;;;;;;5053830;28;20059;-65
2023/01/30 03:19:00;;;;;;;3.00;2.38;;;19.40;31.80;;;;;;5053431;28;20052;-64
2023/01/30 03:21:27;;;;;;;2.88;2.60;;;19.40;31.80;;;;;;5053482;28;20053;-64
2023/01/30 03:23:54;;;;;;;3.88;2.33;;;19.40;31.80;;;;;;5053427;28;20132;-64
2023/01/30 03:26:25;;;;;;;2.30;2.00;;;19.40;31.80;;;;;;5052596;28;20048;-65
2023/01/30 03:28:52;;;;;;;3.45;2.20;;;19.40;31.80;;;;;;5053271;28;20084;-64
2023/01/30 03:31:19;;;;;;;2.95;2.25;;;19.40;31.90;;;;;;5053212;28;20055;-64
2023/01/30 03:33:47;;;;;;;3.25;2.60;;;19.40;31.90;;;;;;5053367;28;20049;-64
2023/01/30 03:36:14;;;;;;;2.70;2.38;;;19.40;31.80;;;;;;5053515;28;20439;-64
2023/01/30 03:38:41;;;;;;;2.58;2.38;;;19.40;31.80;;;;;;5053386;28;20386;-64
2023/01/30 03:41:08;;;;;;;2.15;2.00;;;19.40;31.80;;;;;;5053062;28;20504;-65
2023/01/30 03:43:35;;;;;;;3.88;2.17;;;19.40;31.70;;;;;;5053478;28;20044;-65
2023/01/30 03:46:03;;;;;;;2.35;1.98;;;19.40;31.70;;;;;;5053240;28;20053;-64
2023/01/30 03:48:30;;;;;;;2.35;2.15;;;19.40;31.70;;;;;;5053060;28;20047;-64
2023/01/30 03:50:57;;;;;;;2.53;2.20;;;19.40;31.70;;;;;;5051734;28;20059;-64
2023/01/30 03:53:24;;;;;;;2.63;2.10;;;19.40;31.70;;;;;;5053064;28;20470;-65
2023/01/30 03:55:51;;;;;;;2.55;2.20;;;19.40;31.70;;;;;;5053228;28;20053;-65
2023/01/30 03:58:18;;;;;;;2.55;2.30;;;19.40;31.70;;;;;;5053203;28;20056;-65
2023/01/30 04:00:45;;;;;;;2.25;1.95;;;19.40;31.70;;;;;;5052823;28;20412;-64
2023/01/30 04:03:13;;;;;;;2.83;2.38;;;19.40;31.80;;;;;;5049548;28;20490;-65
2023/01/30 04:05:44;;;;;;;2.42;2.17;;;19.40;31.80;;;;;;5047319;28;20498;-64
2023/01/30 04:08:11;;;;;;;2.40;2.20;;;19.40;31.80;;;;;;5045085;28;20040;-64
2023/01/30 04:10:38;;;;;;;2.30;2.10;;;19.40;31.70;;;;;;5044802;28;20486;-64
2023/01/30 04:13:05;;;;;;;2.40;2.20;;;19.40;31.80;;;;;;5045485;28;20492;-64
2023/01/30 04:15:32;;;;;;;2.65;2.45;;;19.40;31.80;;;;;;5046885;28;20408;-64
2023/01/30 04:17:59;;;;;;;2.30;2.10;;;19.40;31.80;;;;;;5050910;28;20056;-64
2023/01/30 04:20:26;;;;;;;3.08;2.30;;;19.40;31.80;;;;;;5056867;28;20401;-65
2023/01/30 04:22:55;;;;;;;2.33;1.90;;;19.40;31.80;;;;;;5055677;28;20119;-64
2023/01/30 04:25:22;;;;;;;2.45;2.25;;;19.40;31.80;;;;;;5056567;28;20131;-65
2023/01/30 04:27:49;;;;;;;2.25;2.05;;;19.30;31.70;;;;;;5056925;28;20052;-64
2023/01/30 04:30:16;;;;;;;2.70;2.33;;;19.30;31.80;;;;;;5056917;28;20410;-65
2023/01/30 04:32:44;;;;;;;2.25;1.98;;;19.30;31.80;;;;;;5056617;28;20052;-65
2023/01/30 04:35:11;;;;;;;2.38;2.15;;;19.30;31.80;;;;;;5056541;28;20056;-64
2023/01/30 04:37:38;;;;;;;2.22;2.08;;;19.30;31.80;;;;;;5056756;28;20049;-64
2023/01/30 04:40:06;;;;;;;2.15;1.95;;;19.30;31.80;;;;;;5053570;28;20515;-64
2023/01/30 04:42:33;;;;;;;2.35;2.15;;;19.30;31.80;;;;;;5046347;28;20041;-65
2023/01/30 04:45:00;;;;;;;2.17;1.98;;;19.30;31.80;;;;;;5068872;28;20064;-64
2023/01/30 04:47:27;;;;;;;2.08;1.80;;;19.30;31.80;;;;;;5076376;28;20040;-65
2023/01/30 04:49:54;;;;;;;2.08;1.80;;;19.30;31.80;;;;;;5076049;28;20081;-65
2023/01/30 04:52:21;;;;;;;2.40;2.05;;;19.30;31.80;;;;;;5074975;28;20052;-64
2023/01/30 04:54:49;;;;;;;2.47;2.25;;;19.30;31.80;;;;;;5075301;28;20049;-64
2023/01/30 04:57:16;;;;;;;2.40;2.20;;;19.30;31.80;;;;;;5057676;28;20056;-66
2023/01/30 04:59:43;;;;;;;2.13;1.90;;;19.30;31.80;;;;;;5055930;28;20077;-65
2023/01/30 05:02:10;;;;;;;2.35;2.15;;;19.30;31.80;;;;;;5055594;28;20107;-64
2023/01/30 05:04:37;;;;;;;2.35;2.15;;;19.30;31.80;;;;;;5054901;28;20045;-65
2023/01/30 05:07:04;;;;;;;2.03;1.88;;;19.30;31.80;;;;;;5055625;28;20045;-64
2023/01/30 05:09:31;;;;;;;2.42;1.95;;;19.30;31.80;;;;;;5056091;28;20045;-65
2023/01/30 05:11:58;;;;;;;2.75;2.50;;;19.30;31.80;;;;;;5055800;28;20074;-64
2023/01/30 05:14:25;;;;;;;2.20;1.95;;;19.30;31.80;;;;;;5055323;28;20037;-64
2023/01/30 05:16:52;;;;;;;2.33;2.03;;;19.30;31.80;;;;;;5055833;28;20127;-64
2023/01/30 05:19:20;;;;;;;2.85;2.08;;;19.30;31.80;;;;;;5055380;28;20076;-65
2023/01/30 05:21:47;;;;;;;1.65;1.55;;;19.30;31.90;;;;;;5055144;28;20049;-64
2023/01/30 05:24:14;;;;;;;2.45;2.25;;;19.30;31.90;;;;;;5055620;28;20481;-64
2023/01/30 05:26:41;;;;;;;2.00;1.88;;;19.30;31.80;;;;;;5055965;28;20079;-65
2023/01/30 05:29:09;;;;;;;2.92;2.25;;;19.30;31.80;;;;;;5055148;28;20053;-64
2023/01/30 05:31:37;;;;;;;2.20;1.95;;;19.30;31.80;;;;;;5055336;28;20049;-64
2023/01/30 05:34:04;;;;;;;2.30;2.10;;;19.30;31.80;;;;;;5051889;28;20060;-64
2023/01/30 05:36:31;;;;;;;2.05;1.80;;;19.20;31.80;;;;;;5048336;28;20045;-64
2023/01/30 05:38:58;;;;;;;2.88;2.00;;;19.20;31.70;;;;;;5044816;28;20045;-64
2023/01/30 05:41:25;;;;;;;2.13;1.98;;;19.20;31.50;;;;;;5043846;28;20073;-64
2023/01/30 05:43:52;;;;;;;2.40;2.03;;;19.20;31.50;;;;;;5046973;28;20041;-64
2023/01/30 05:46:20;;;;;;;2.72;2.25;;;19.20;31.40;;;;;;5049987;28;20128;-64
2023/01/30 05:48:47;;;;;;;2.97;2.47;;;19.20;31.40;;;;;;5044589;28;20099;-64
2023/01/30 05:51:17;;;;;;;2.45;2.10;;;19.20;31.40;;;;;;5043682;28;20049;-64
2023/01/30 05:53:44;;;;;;;2.53;2.33;;;19.20;31.40;;;;;;5045415;28;20037;-64
2023/01/30 05:56:11;;;;;;;2.58;2.38;;;19.20;31.40;;;;;;5050956;28;20075;-64
2023/01/30 05:58:39;;;;;;;2.72;2.17;;;19.20;31.40;;;;;;5054755;28;20477;-64
2023/01/30 06:01:08;;;;;;;3.10;2.42;;;19.20;31.40;;;;;;5054577;28;20413;-64
2023/01/30 06:03:35;;;;;;;2.55;2.13;;;19.20;31.30;;;;;;5052893;28;20124;-64
2023/01/30 06:06:04;;;;;;;3.05;2.22;;;19.20;31.30;;;;;;5053857;28;20051;-64
2023/01/30 06:08:32;;;;;;;1.83;1.73;;;19.20;31.30;;;;;;5053651;28;20144;-64
2023/01/30 06:11:02;;;;;;;2.70;2.40;;;19.20;31.20;;;;;;5038667;28;20055;-64
2023/01/30 06:13:29;;;;;;;3.03;2.22;;;19.30;31.20;;;;;;5048088;28;20413;-64
2023/01/30 06:15:56;;;;;;;2.88;2.38;;;19.30;31.10;;;;;;5044547;28;20059;-64
2023/01/30 06:18:24;;;;;;;2.88;2.10;;;19.30;31.10;;;;;;5051428;28;20045;-63
2023/01/30 06:20:52;;;;;;;2.95;2.75;;;19.40;31.20;;;;;;5045199;28;20160;-64
2023/01/30 06:23:22;;;;;;;2.20;2.00;;;19.40;31.20;;;;;;5044232;28;20056;-62
2023/01/30 06:25:50;;;;;;;2.90;2.63;;;19.40;31.20;;;;;;5043986;28;20416;-66
2023/01/30 06:28:19;;;;;;;2.60;2.40;;;19.40;31.20;;;;;;5043427;28;20073;-66
2023/01/30 06:30:46;;;;;;;3.72;3.10;;;19.50;31.80;;;;;;5040582;28;20049;-63
2023/01/30 06:33:13;;;;;;;4.47;3.65;;;19.50;31.30;;;;;;5043556;28;20061;-66
2023/01/30 06:35:43;;;;;;;4.03;2.85;;;19.60;31.20;;;;;;5040119;28;20041;-64
2023/01/30 06:38:12;;;;;;;3.83;3.10;;;19.60;31.20;;;;;;5035918;28;20045;-64
2023/01/30 06:40:47;;;;;;;2.90;2.58;;;19.60;31.10;;;;;;5033312;28;20309;-63
2023/01/30 06:43:15;;;;;;;8.88;3.30;;;19.70;31.30;;;;;;5040156;28;20072;-64
2023/01/30 06:45:42;;;;;;;4.38;3.10;;;19.80;31.70;;;;;;5034247;28;20051;-60
2023/01/30 06:48:09;;;;;;;3.17;2.55;;;19.80;32.00;;;;;;5030919;28;20080;-62
2023/01/30 06:50:36;;;;;;;3.85;2.85;;;19.90;31.90;;;;;;5040149;28;20053;-62
2023/01/30 06:53:06;;;;;;;3.88;3.08;;;19.90;31.70;;;;;;5041745;28;20705;-62
2023/01/30 06:55:34;;;;;;;3.55;3.17;;;19.90;31.60;;;;;;5041873;28;20056;-61
2023/01/30 06:58:09;;;;;;;4.38;3.38;;;20.00;31.50;;;;;;5041700;28;20052;-63
2023/01/30 07:00:39;;;;;;;5.72;3.53;;;20.00;31.50;;;;;;5034188;28;20143;-62
2023/01/30 07:03:14;;;;;;;5.65;3.50;;;20.00;31.40;;;;;;5039353;28;20041;-63
2023/01/30 07:05:43;;;;;;;5.30;3.92;;;20.00;31.40;;;;;;5036210;28;20095;-63
2023/01/30 07:08:11;;;;;;;5.40;3.80;;;20.10;31.60;;;;;;5037426;28;20052;-64
2023/01/30 07:10:39;;;;;;;6.28;3.85;;;20.10;31.80;;;;;;5034883;28;20072;-64
2023/01/30 07:13:07;;;;;;;8.48;4.38;;;20.10;32.00;;;;;;5040794;28;20057;-63
2023/01/30 07:15:34;;;;;;;7.20;4.63;;;20.20;32.20;;;;;;5038982;28;20041;-64
2023/01/30 07:18:01;;;;;;;7.05;4.32;;;20.20;32.20;;;;;;5045236;28;20084;-66
2023/01/30 07:20:30;;;;;;;8.88;5.63;;;20.30;32.30;;;;;;5043570;28;20049;-62
2023/01/30 07:22:57;;;;;;;8.00;5.68;;;20.30;32.20;;;;;;5041645;28;20040;-66
2023/01/30 07:25:27;;;;;;;9.63;5.15;;;20.30;32.20;;;;;;5032403;28;20080;-64
2023/01/30 07:27:57;;;;;;;8.05;5.60;;;20.40;32.20;;;;;;5034328;28;20056;-64
2023/01/30 07:30:25;;;;;;;10.77;5.72;;;20.50;32.30;;;;;;5039076;28;20151;-65
2023/01/30 07:32:56;;;;;;;9.80;5.60;;;20.50;32.20;;;;;;5041193;28;20425;-60
2023/01/30 07:35:25;;;;;;;8.40;5.15;;;20.50;32.20;;;;;;5035654;28;20513;-62
2023/01/30 07:37:52;;;;;;;13.20;5.43;;;20.60;32.20;;;;;;5040964;28;20392;-63
2023/01/30 07:40:21;;;;;;;11.35;5.63;;;20.70;32.30;;;;;;5040129;28;20073;-63
2023/01/30 07:43:05;;;;;;;9.73;5.70;;;20.70;32.20;;;;;;5039783;28;20063;-66
2023/01/30 07:45:37;;;;;;;8.82;5.72;;;20.70;32.20;;;;;;5037329;28;20128;-64
2023/01/30 07:48:09;;;;;;;9.88;5.65;;;20.80;32.20;;;;;;5039730;28;20065;-66
2023/01/30 07:50:36;;;;;;;11.70;6.45;;;20.80;32.00;;;;;;5040266;28;20072;-64
2023/01/30 07:53:04;;;;;;;14.82;6.55;;;20.90;32.10;;;;;;5042435;28;20148;-64
2023/01/30 07:55:32;;;;;;;11.60;6.60;;;20.90;32.00;;;;;;5041663;28;20489;-64
2023/01/30 07:57:59;;;;;;;17.63;7.85;;;21.00;32.00;;;;;;5039136;28;20057;-64
2023/01/30 08:00:26;;;;;;;13.35;7.20;;;21.00;31.90;;;;;;5039840;28;20056;-64
2023/01/30 08:02:54;;;;;;;16.17;7.45;;;21.10;32.00;;;;;;5039166;28;20056;-67
2023/01/30 08:05:21;;;;;;;13.18;7.03;;;21.10;32.00;;;;;;5041696;28;20484;-67
2023/01/30 08:07:49;;;;;;;14.43;7.60;;;21.20;31.70;;;;;;5036481;28;20052;-66
2023/01/30 08:10:16;;;;;;;19.83;9.00;;;21.20;31.70;;;;;;5037602;28;20052;-62
2023/01/30 08:12:44;;;;;;;17.75;8.43;;;21.30;31.80;;;;;;5035663;28;20081;-65
2023/01/30 08:15:11;;;;;;;17.85;8.82;;;21.30;31.90;;;;;;5037090;28;20041;-60
2023/01/30 08:17:38;;;;;;;18.70;8.75;;;21.40;32.10;;;;;;5036465;28;20055;-66
2023/01/30 08:20:09;;;;;;;18.08;9.02;;;21.40;32.20;;;;;;5035275;28;20501;-65
2023/01/30 08:22:36;;;;;;;16.95;8.77;;;21.50;32.40;;;;;;5040977;28;20053;-68
2023/01/30 08:25:03;;;;;;;16.67;8.85;;;21.50;32.30;;;;;;5037865;28;20041;-66
2023/01/30 08:27:30;;;;;;;20.02;8.68;;;21.50;32.10;;;;;;5041005;28;20892;-64
2023/01/30 08:29:57;;;;;;;17.98;9.13;;;21.60;32.10;;;;;;5040042;28;20052;-67
2023/01/30 08:32:25;;;;;;;15.25;8.40;;;21.60;32.00;;;;;;5039561;28;20057;-67
2023/01/30 08:34:52;;;;;;;17.45;8.35;;;21.70;31.90;;;;;;5035180;28;20041;-65
2023/01/30 08:37:19;;;;;;;17.55;8.10;;;21.70;31.90;;;;;;5039706;28;20429;-66
2023/01/30 08:39:47;;;;;;;17.75;7.90;;;21.80;31.80;;;;;;5041754;28;20045;-67
2023/01/30 08:42:14;;;;;;;17.05;7.80;;;21.80;31.70;;;;;;5040476;28;20049;-65
2023/01/30 08:44:42;;;;;;;16.27;8.73;;;21.90;31.70;;;;;;5036789;28;20127;-66
2023/01/30 08:47:09;;;;;;;19.50;8.38;;;21.90;31.70;;;;;;5039549;28;20144;-68
2023/01/30 08:49:36;;;;;;;15.13;7.55;;;21.90;32.20;;;;;;5038807;28;20405;-64
2023/01/30 08:52:03;;;;;;;18.92;7.20;;;22.00;31.50;;;;;;5044274;28;20048;-69
2023/01/30 08:54:30;;;;;;;15.65;8.57;;;22.10;31.40;;;;;;5042109;28;20409;-69
2023/01/30 08:57:00;;;;;;;14.05;7.63;;;22.10;31.40;;;;;;5044472;28;20048;-66
2023/01/30 08:59:27;;;;;;;16.08;8.10;;;22.10;31.30;;;;;;5042810;28;20045;-66
2023/01/30 09:01:54;;;;;;;14.02;7.30;;;22.20;31.30;;;;;;5043039;28;20405;-67
2023/01/30 09:04:23;;;;;;;13.70;7.97;;;22.20;31.10;;;;;;5042525;28;20051;-67
2023/01/30 09:06:51;;;;;;;13.93;7.28;;;22.20;31.00;;;;;;5042583;28;20094;-66
2023/01/30 09:09:18;;;;;;;12.30;6.43;;;22.20;31.00;;;;;;5037598;28;20057;-62
2023/01/30 09:11:47;;;;;;;12.55;7.22;;;22.30;31.10;;;;;;5037840;28;20417;-64
2023/01/30 09:14:18;;;;;;;14.40;6.68;;;22.30;31.10;;;;;;5043396;28;20059;-69
2023/01/30 09:16:47;;;;;;;13.43;6.13;;;22.30;31.00;;;;;;5040333;28;20060;-64
2023/01/30 09:19:14;;;;;;;12.98;6.80;;;22.40;31.10;;;;;;5038510;28;20119;-68
2023/01/30 09:21:41;;;;;;;16.73;6.30;;;22.40;31.00;;;;;;5040457;28;20045;-62
2023/01/30 09:24:08;;;;;;;12.23;6.32;;;22.50;31.10;;;;;;5041764;28;20057;-64
2023/01/30 09:26:36;;;;;;;11.18;6.32;;;22.50;31.00;;;;;;5039427;28;20113;-61
2023/01/30 09:29:03;;;;;;;16.42;6.15;;;22.50;31.00;;;;;;5042976;28;20382;-62
2023/01/30 09:31:30;;;;;;;14.30;6.20;;;22.60;31.00;;;;;;5035717;28;20057;-62
2023/01/30 09:33:58;;;;;;;10.90;6.35;;;22.60;31.00;;;;;;5043314;28;20056;-62
2023/01/30 09:36:25;;;;;;;11.20;6.05;;;22.70;30.90;;;;;;5042712;28;20045;-63
2023/01/30 09:38:52;;;;;;;16.75;7.47;;;22.70;30.80;;;;;;5043873;28;20053;-63
2023/01/30 09:41:48;;;;;;;12.55;6.20;;;22.70;30.60;;;;;;5043272;28;20068;-63
2023/01/30 09:44:45;;;;;;;15.27;7.85;;;22.80;30.60;;;;;;5041978;28;20471;-63
2023/01/30 09:47:18;;;;;;;15.23;7.38;;;22.80;30.40;;;;;;5040520;28;20102;-67
2023/01/30 09:50:05;;;;;;;13.55;7.28;;;22.90;30.20;;;;;;5044130;28;20094;-66
2023/01/30 09:53:00;;;;;;;15.73;7.93;;;22.90;30.20;;;;;;5040810;28;20052;-64
2023/01/30 09:55:31;;;;;;;25.20;8.30;;;22.90;30.00;;;;;;5035319;28;20052;-66
2023/01/30 09:58:00;;;;;;;15.98;7.32;;;22.90;30.00;;;;;;5038229;28;20052;-63
2023/01/30 10:00:34;;;;;;;16.15;7.40;;;23.00;30.00;;;;;;5037757;28;20485;-65
2023/01/30 10:03:12;;;;;;;14.57;6.68;;;23.00;30.20;;;;;;5034318;28;20083;-67
2023/01/30 10:05:48;;;;;;;15.75;7.53;;;22.90;30.30;;;;;;5040098;28;20142;-65
2023/01/30 10:08:47;;;;;;;11.75;6.07;;;23.00;30.70;;;;;;5039562;28;20478;-68
2023/01/30 10:11:39;;;;;;;16.15;6.88;;;23.00;30.10;;;;;;5037744;28;20059;-68
2023/01/30 10:14:35;;;;;;;14.45;6.82;;;23.00;30.00;;;;;;5041993;28;20545;-69
2023/01/30 10:17:41;;;;;;;14.30;6.22;;;23.00;29.90;;;;;;5037849;28;20481;-65
2023/01/30 10:20:31;;;;;;;13.63;6.65;;;23.00;29.90;;;;;;5037815;28;20064;-64
2023/01/30 10:23:33;;;;;;;10.53;6.07;;;23.10;30.00;;;;;;5035768;28;20060;-66
2023/01/30 10:26:13;;;;;;;11.77;6.40;;;23.10;30.00;;;;;;5037217;28;20139;-68
2023/01/30 10:28:49;;;;;;;10.75;5.53;;;23.20;29.90;;;;;;5042866;28;20106;-67
2023/01/30 10:31:45;;;;;;;9.57;5.50;;;23.20;29.70;;;;;;5041349;28;20063;-70
2023/01/30 10:34:20;;;;;;;;;;;23.30;29.60;;;;;;5055710;28;20127;-67
2023/01/30 10:37:07;;;;;;;11.48;6.90;;;23.30;29.50;;;;;;5042372;28;20365;-66
2023/01/30 10:39:49;;;;;;;13.68;6.38;;;23.30;29.40;;;;;;5042454;28;20481;-67
2023/01/30 10:42:40;;;;;;;15.90;7.80;;;23.20;29.30;;;;;;5042035;28;20041;-65
2023/01/30 10:45:14;;;;;;;13.77;7.60;;;23.30;29.40;;;;;;5038073;28;20057;-67
2023/01/30 10:47:55;;;;;;;13.05;6.95;;;23.20;29.20;;;;;;5054423;28;20072;-68
2023/01/30 10:50:33;;;;;;;14.27;7.32;;;23.30;29.20;;;;;;5042713;28;20504;-69
2023/01/30 10:53:17;;;;;;;12.23;6.88;;;23.30;29.30;;;;;;5037693;28;20087;-68
2023/01/30 10:55:51;;;;;;;11.68;6.72;;;23.20;29.30;;;;;;5041158;28;20449;-67
2023/01/30 10:58:38;;;;;;;11.30;6.15;;;23.20;29.20;;;;;;5045413;28;20075;-69
2023/01/30 11:01:29;;;;;;;14.77;7.57;;;23.20;29.20;;;;;;5042392;28;20493;-67
2023/01/30 11:04:00;;;;;;;;;;;23.20;29.20;;;;;;5042948;28;20106;-69
2023/01/30 11:06:30;;;;;;;10.60;5.78;;;23.30;29.40;;;;;;5044828;28;20398;-66
2023/01/30 11:08:57;;;;;;;9.40;6.03;;;23.30;29.40;;;;;;5038413;28;20059;-66
2023/01/30 11:11:41;;;;;;;16.27;6.15;;;23.30;29.40;;;;;;5040322;28;20059;-67
2023/01/30 11:14:11;;;;;;;11.18;5.75;;;23.30;29.40;;;;;;5045650;28;20052;-69
2023/01/30 11:16:52;;;;;;;17.00;6.73;;;23.30;29.40;;;;;;5046095;28;20135;-69
2023/01/30 11:19:30;;;;;;;10.35;5.47;;;23.40;29.40;;;;;;5046270;28;20045;-68
2023/01/30 11:22:03;;;;;;;13.50;5.68;;;23.40;29.40;;;;;;5041646;28;20378;-68
2023/01/30 11:24:44;;;;;;;9.02;5.60;;;23.40;29.30;;;;;;5045272;28;20045;-69
2023/01/30 11:27:28;;;;;;;9.77;5.57;;;23.40;29.30;;;;;;5043488;28;20077;-68
2023/01/30 11:30:15;;;;;;;14.30;6.15;;;23.40;29.20;;;;;;5044531;28;20049;-68
2023/01/30 11:32:45;;;;;;;9.80;5.47;;;23.40;29.20;;;;;;5044787;28;20461;-68
2023/01/30 11:35:23;;;;;;;9.10;5.70;;;23.40;29.20;;;;;;5043158;28;20501;-68
2023/01/30 11:37:52;;;;;;;8.30;5.43;;;23.40;29.20;;;;;;5040761;28;20055;-68
2023/01/30 11:40:26;;;;;;;8.55;5.05;;;23.40;29.10;;;;;;5043778;28;20099;-66
2023/01/30 11:43:05;;;;;;;9.07;5.20;;;23.40;29.10;;;;;;5040223;28;20057;-67
2023/01/30 11:45:38;;;;;;;9.43;5.38;;;23.40;29.10;;;;;;5043173;28;20136;-67
2023/01/30 11:48:15;;;;;;;11.30;5.28;;;23.40;29.00;;;;;;5043823;28;20053;-68
2023/01/30 11:51:05;;;;;;;8.32;5.43;;;23.40;29.00;;;;;;5044093;28;20045;-67
2023/01/30 11:53:38;;;;;;;8.18;5.40;;;23.50;28.90;;;;;;5038976;28;20477;-65
2023/01/30 11:56:14;;;;;;;9.93;5.20;;;23.50;28.90;;;;;;5045872;28;20048;-70
2023/01/30 11:58:48;;;;;;;8.65;5.22;;;23.50;29.00;;;;;;5041831;28;20084;-68
2023/01/30 12:01:16;;;;;;;8.50;4.80;;;23.50;29.00;;;;;;5041353;28;20478;-62
2023/01/30 12:03:52;;;;;;;9.00;5.25;;;23.50;29.00;;;;;;5037583;28;20052;-63
2023/01/30 12:06:28;;;;;;;10.70;5.65;;;23.60;29.20;;;;;;5041717;28;20041;-65
2023/01/30 12:08:56;;;;;;;9.55;5.43;;;23.60;29.20;;;;;;5037614;28;20528;-64
2023/01/30 12:11:43;;;;;;;9.75;6.20;;;23.60;29.10;;;;;;5040138;28;21789;-62
2023/01/30 12:14:40;;;;;;;12.95;6.40;;;23.60;29.30;;;;;;5038701;28;20055;-68
2023/01/30 12:17:37;;;;;;;11.48;6.60;;;23.60;29.50;;;;;;5037979;28;20063;-70
2023/01/30 12:20:44;;;;;;;9.90;6.25;;;23.60;29.40;;;;;;5042645;28;20102;-71
2023/01/30 12:23:22;;;;;;;12.13;5.28;;;23.70;29.60;;;;;;5045538;28;20068;-69
2023/01/30 12:26:18;;;;;;;9.27;5.45;;;23.70;29.60;;;;;;5038972;28;20076;-71
2023/01/30 12:29:25;;;;;;;9.18;6.00;;;23.70;29.50;;;;;;5046057;28;20401;-72
2023/01/30 12:32:13;;;;;;;12.80;6.32;;;23.80;29.50;;;;;;5048037;28;20045;-69
2023/01/30 12:34:44;;;;;;;11.57;6.38;;;23.80;29.50;;;;;;5046720;28;20135;-67
2023/01/30 12:37:51;;;;;;;10.57;6.78;;;23.80;29.60;;;;;;5048851;28;20106;-67
2023/01/30 12:40:42;;;;;;;15.25;8.18;;;23.80;29.60;;;;;;5047308;28;20409;-66
2023/01/30 12:43:52;;;;;;;15.45;8.38;;;23.80;29.50;;;;;;5048554;28;20045;-69
2023/01/30 12:46:48;;;;;;;20.30;9.85;;;23.90;29.50;;;;;;5047490;28;20052;-64
2023/01/30 12:49:46;;;;;;;17.25;9.80;;;23.90;29.40;;;;;;5049398;28;20434;-68
2023/01/30 12:52:43;;;;;;;16.73;9.05;;;23.90;29.40;;;;;;5049872;28;20053;-70
2023/01/30 12:55:39;;;;;;;17.67;8.63;;;23.90;29.40;;;;;;5045659;28;20049;-66
2023/01/30 12:58:23;;;;;;;16.35;8.65;;;23.90;29.50;;;;;;5045235;28;20049;-65
2023/01/30 13:01:24;;;;;;;11.90;8.20;;;23.90;29.50;;;;;;5046305;28;20045;-65
2023/01/30 13:04:31;;;;;;;15.32;8.13;;;23.90;29.40;;;;;;5046831;28;20045;-67
2023/01/30 13:07:30;;;;;;;15.98;8.15;;;23.90;29.40;;;;;;5046630;28;20040;-64
2023/01/30 13:10:22;;;;;;;14.18;8.30;;;23.90;29.50;;;;;;5042507;28;20053;-63
2023/01/30 13:13:13;;;;;;;11.38;6.93;;;23.80;29.50;;;;;;5045884;28;20091;-61
2023/01/30 13:15:52;;;;;;;12.45;6.80;;;23.80;29.50;;;;;;5045742;28;20061;-68
2023/01/30 13:18:28;;;;;;;16.70;7.95;;;23.80;29.70;;;;;;5042556;28;20048;-65
2023/01/30 13:21:08;;;;;;;12.02;6.80;;;23.70;29.70;;;;;;5046516;28;20057;-68
2023/01/30 13:24:15;;;;;;;12.68;7.63;;;23.70;29.70;;;;;;5046611;28;20064;-65